sensor_id;sensor_type;location;lat;lon;timestamp;P1;durP1;ratioP1;P2;durP2;ratioP2
13805;SDS011;6974;53.606;9.872;2023-05-10T00:01:27;6.50;;;3.90;;
13805;SDS011;6974;53.606;9.872;2023-05-10T00:03:54;5.23;;;3.70;;
13805;SDS011;6974;53.606;9.872;2023-05-10T00:06:22;4.87;;;3.77;;
13805;SDS011;6974;53.606;9.872;2023-05-10T00:08:49;5.70;;;3.50;;
13805;SDS011;6974;53.606;9.872;2023-05-10T00:11:16;5.63;;;3.80;;
13805;SDS011;6974;53.606;9.872;2023-05-10T00:13:43;6.47;;;3.90;;
13805;SDS011;6974;53.606;9.872;2023-05-10T00:16:09;7.33;;;3.43;;
13805;SDS011;6974;53.606;9.872;2023-05-10T00:18:38;4.20;;;3.50;;
13805;SDS011;6974;53.606;9.872;2023-05-10T00:21:05;4.57;;;3.90;;
13805;SDS011;6974;53.606;9.872;2023-05-10T00:23:33;5.43;;;3.77;;
13805;SDS011;6974;53.606;9.872;2023-05-10T00:26:00;4.23;;;3.80;;
13805;SDS011;6974;53.606;9.872;2023-05-10T00:28:27;5.67;;;3.63;;
13805;SDS011;6974;53.606;9.872;2023-05-10T00:30:54;5.67;;;4.03;;
13805;SDS011;6974;53.606;9.872;2023-05-10T00:33:21;4.10;;;3.70;;
13805;SDS011;6974;53.606;9.872;2023-05-10T00:35:48;7.57;;;4.30;;
13805;SDS011;6974;53.606;9.872;2023-05-10T00:38:15;6.20;;;3.93;;
13805;SDS011;6974;53.606;9.872;2023-05-10T00:40:43;5.50;;;4.10;;
13805;SDS011;6974;53.606;9.872;2023-05-10T00:43:11;5.13;;;4.40;;
13805;SDS011;6974;53.606;9.872;2023-05-10T00:45:37;3.93;;;3.63;;
13805;SDS011;6974;53.606;9.872;2023-05-10T00:48:07;4.30;;;3.80;;
13805;SDS011;6974;53.606;9.872;2023-05-10T00:50:34;5.07;;;4.03;;
13805;SDS011;6974;53.606;9.872;2023-05-10T00:53:01;5.47;;;4.17;;
13805;SDS011;6974;53.606;9.872;2023-05-10T00:55:29;6.20;;;4.33;;
13805;SDS011;6974;53.606;9.872;2023-05-10T00:57:57;5.53;;;4.17;;
13805;SDS011;6974;53.606;9.872;2023-05-10T01:00:24;4.83;;;4.33;;
13805;SDS011;6974;53.606;9.872;2023-05-10T01:02:52;6.33;;;4.37;;
13805;SDS011;6974;53.606;9.872;2023-05-10T01:05:19;6.97;;;4.10;;
13805;SDS011;6974;53.606;9.872;2023-05-10T01:07:46;4.70;;;4.30;;
13805;SDS011;6974;53.606;9.872;2023-05-10T01:10:13;4.27;;;3.90;;
13805;SDS011;6974;53.606;9.872;2023-05-10T01:12:40;5.07;;;4.57;;
13805;SDS011;6974;53.606;9.872;2023-05-10T01:15:10;6.53;;;4.13;;
13805;SDS011;6974;53.606;9.872;2023-05-10T01:17:39;6.07;;;4.30;;
13805;SDS011;6974;53.606;9.872;2023-05-10T01:20:08;5.93;;;4.27;;
13805;SDS011;6974;53.606;9.872;2023-05-10T01:25:40;5.17;;;4.27;;
13805;SDS011;6974;53.606;9.872;2023-05-10T01:31:26;7.13;;;4.60;;
13805;SDS011;6974;53.606;9.872;2023-05-10T01:34:05;5.57;;;4.30;;
13805;SDS011;6974;53.606;9.872;2023-05-10T01:36:38;6.37;;;4.20;;
13805;SDS011;6974;53.606;9.872;2023-05-10T01:39:11;6.77;;;4.70;;
13805;SDS011;6974;53.606;9.872;2023-05-10T01:41:43;4.70;;;3.93;;
13805;SDS011;6974;53.606;9.872;2023-05-10T01:44:16;6.07;;;4.13;;
13805;SDS011;6974;53.606;9.872;2023-05-10T01:46:53;4.93;;;4.40;;
13805;SDS011;6974;53.606;9.872;2023-05-10T01:49:31;5.97;;;4.40;;
13805;SDS011;6974;53.606;9.872;2023-05-10T01:52:03;4.80;;;4.13;;
13805;SDS011;6974;53.606;9.872;2023-05-10T01:54:34;5.37;;;3.97;;
13805;SDS011;6974;53.606;9.872;2023-05-10T01:57:05;5.83;;;4.40;;
13805;SDS011;6974;53.606;9.872;2023-05-10T01:59:35;5.47;;;4.20;;
13805;SDS011;6974;53.606;9.872;2023-05-10T02:02:06;4.57;;;4.17;;
13805;SDS011;6974;53.606;9.872;2023-05-10T02:04:38;6.37;;;4.37;;
13805;SDS011;6974;53.606;9.872;2023-05-10T02:07:07;6.43;;;4.17;;
13805;SDS011;6974;53.606;9.872;2023-05-10T02:09:35;6.10;;;4.50;;
13805;SDS011;6974;53.606;9.872;2023-05-10T02:12:03;6.90;;;4.53;;
13805;SDS011;6974;53.606;9.872;2023-05-10T02:14:34;6.27;;;4.37;;
13805;SDS011;6974;53.606;9.872;2023-05-10T02:17:02;4.70;;;4.20;;
13805;SDS011;6974;53.606;9.872;2023-05-10T02:19:31;4.73;;;4.20;;
13805;SDS011;6974;53.606;9.872;2023-05-10T02:22:00;6.20;;;4.00;;
13805;SDS011;6974;53.606;9.872;2023-05-10T02:24:29;4.63;;;4.23;;
13805;SDS011;6974;53.606;9.872;2023-05-10T02:26:58;6.77;;;4.47;;
13805;SDS011;6974;53.606;9.872;2023-05-10T02:29:26;7.23;;;4.63;;
13805;SDS011;6974;53.606;9.872;2023-05-10T02:31:54;5.73;;;4.40;;
13805;SDS011;6974;53.606;9.872;2023-05-10T02:34:23;5.10;;;4.70;;
13805;SDS011;6974;53.606;9.872;2023-05-10T02:36:52;7.67;;;4.63;;
13805;SDS011;6974;53.606;9.872;2023-05-10T02:39:22;6.13;;;4.63;;
13805;SDS011;6974;53.606;9.872;2023-05-10T02:41:50;6.23;;;4.67;;
13805;SDS011;6974;53.606;9.872;2023-05-10T02:44:20;5.23;;;4.47;;
13805;SDS011;6974;53.606;9.872;2023-05-10T02:46:48;7.03;;;4.40;;
13805;SDS011;6974;53.606;9.872;2023-05-10T02:49:15;5.30;;;4.80;;
13805;SDS011;6974;53.606;9.872;2023-05-10T02:51:44;8.03;;;4.83;;
13805;SDS011;6974;53.606;9.872;2023-05-10T02:54:15;5.83;;;4.43;;
13805;SDS011;6974;53.606;9.872;2023-05-10T02:56:49;4.67;;;4.17;;
13805;SDS011;6974;53.606;9.872;2023-05-10T02:59:19;5.20;;;4.43;;
13805;SDS011;6974;53.606;9.872;2023-05-10T03:01:46;5.10;;;4.27;;
13805;SDS011;6974;53.606;9.872;2023-05-10T03:04:13;6.63;;;4.40;;
13805;SDS011;6974;53.606;9.872;2023-05-10T03:06:41;7.73;;;4.50;;
13805;SDS011;6974;53.606;9.872;2023-05-10T03:09:08;7.07;;;4.00;;
13805;SDS011;6974;53.606;9.872;2023-05-10T03:11:39;6.20;;;4.17;;
13805;SDS011;6974;53.606;9.872;2023-05-10T03:14:21;5.07;;;4.53;;
13805;SDS011;6974;53.606;9.872;2023-05-10T03:16:56;5.90;;;4.20;;
13805;SDS011;6974;53.606;9.872;2023-05-10T03:19:27;5.33;;;4.57;;
13805;SDS011;6974;53.606;9.872;2023-05-10T03:21:59;5.40;;;4.90;;
13805;SDS011;6974;53.606;9.872;2023-05-10T03:24:35;5.50;;;4.20;;
13805;SDS011;6974;53.606;9.872;2023-05-10T03:27:02;9.37;;;4.60;;
13805;SDS011;6974;53.606;9.872;2023-05-10T03:29:32;4.97;;;4.47;;
13805;SDS011;6974;53.606;9.872;2023-05-10T03:32:00;5.90;;;4.67;;
13805;SDS011;6974;53.606;9.872;2023-05-10T03:34:26;5.77;;;4.60;;
13805;SDS011;6974;53.606;9.872;2023-05-10T03:36:59;5.07;;;4.57;;
13805;SDS011;6974;53.606;9.872;2023-05-10T03:39:26;5.00;;;4.23;;
13805;SDS011;6974;53.606;9.872;2023-05-10T03:41:53;6.53;;;4.63;;
13805;SDS011;6974;53.606;9.872;2023-05-10T03:44:20;6.77;;;4.57;;
13805;SDS011;6974;53.606;9.872;2023-05-10T03:46:48;6.97;;;5.00;;
13805;SDS011;6974;53.606;9.872;2023-05-10T03:49:15;5.70;;;4.37;;
13805;SDS011;6974;53.606;9.872;2023-05-10T03:51:42;6.30;;;4.63;;
13805;SDS011;6974;53.606;9.872;2023-05-10T03:54:08;5.90;;;4.70;;
13805;SDS011;6974;53.606;9.872;2023-05-10T03:56:35;6.27;;;4.40;;
13805;SDS011;6974;53.606;9.872;2023-05-10T03:59:02;6.50;;;4.97;;
13805;SDS011;6974;53.606;9.872;2023-05-10T04:01:32;5.13;;;4.33;;
13805;SDS011;6974;53.606;9.872;2023-05-10T04:04:00;4.57;;;4.13;;
13805;SDS011;6974;53.606;9.872;2023-05-10T04:06:27;6.37;;;4.73;;
13805;SDS011;6974;53.606;9.872;2023-05-10T04:08:54;6.03;;;5.07;;
13805;SDS011;6974;53.606;9.872;2023-05-10T04:11:21;5.80;;;4.93;;
13805;SDS011;6974;53.606;9.872;2023-05-10T04:13:49;6.33;;;4.60;;
13805;SDS011;6974;53.606;9.872;2023-05-10T04:16:16;6.77;;;5.00;;
13805;SDS011;6974;53.606;9.872;2023-05-10T04:18:43;7.73;;;5.00;;
13805;SDS011;6974;53.606;9.872;2023-05-10T04:21:14;7.37;;;4.50;;
13805;SDS011;6974;53.606;9.872;2023-05-10T04:23:41;8.67;;;5.20;;
13805;SDS011;6974;53.606;9.872;2023-05-10T04:26:08;6.77;;;4.90;;
13805;SDS011;6974;53.606;9.872;2023-05-10T04:28:35;6.20;;;4.93;;
13805;SDS011;6974;53.606;9.872;2023-05-10T04:31:02;7.13;;;4.97;;
13805;SDS011;6974;53.606;9.872;2023-05-10T04:33:29;5.20;;;4.70;;
13805;SDS011;6974;53.606;9.872;2023-05-10T04:35:56;8.77;;;5.23;;
13805;SDS011;6974;53.606;9.872;2023-05-10T04:38:25;6.67;;;4.93;;
13805;SDS011;6974;53.606;9.872;2023-05-10T04:40:52;5.93;;;4.50;;
13805;SDS011;6974;53.606;9.872;2023-05-10T04:43:19;11.07;;;5.30;;
13805;SDS011;6974;53.606;9.872;2023-05-10T04:45:46;8.10;;;5.13;;
13805;SDS011;6974;53.606;9.872;2023-05-10T04:48:13;5.73;;;4.97;;
13805;SDS011;6974;53.606;9.872;2023-05-10T04:50:40;10.03;;;5.60;;
13805;SDS011;6974;53.606;9.872;2023-05-10T04:53:06;10.30;;;5.20;;
13805;SDS011;6974;53.606;9.872;2023-05-10T04:55:35;6.80;;;5.30;;
13805;SDS011;6974;53.606;9.872;2023-05-10T04:58:02;5.27;;;4.77;;
13805;SDS011;6974;53.606;9.872;2023-05-10T05:00:28;6.73;;;5.20;;
13805;SDS011;6974;53.606;9.872;2023-05-10T05:02:55;6.33;;;4.80;;
13805;SDS011;6974;53.606;9.872;2023-05-10T05:05:22;6.73;;;5.17;;
13805;SDS011;6974;53.606;9.872;2023-05-10T05:07:49;8.07;;;5.23;;
13805;SDS011;6974;53.606;9.872;2023-05-10T05:10:16;8.43;;;5.07;;
13805;SDS011;6974;53.606;9.872;2023-05-10T05:12:44;5.70;;;4.97;;
13805;SDS011;6974;53.606;9.872;2023-05-10T05:15:11;9.53;;;5.07;;
13805;SDS011;6974;53.606;9.872;2023-05-10T05:17:38;7.63;;;5.20;;
13805;SDS011;6974;53.606;9.872;2023-05-10T05:20:05;5.93;;;5.00;;
13805;SDS011;6974;53.606;9.872;2023-05-10T05:22:33;6.30;;;5.07;;
13805;SDS011;6974;53.606;9.872;2023-05-10T05:25:01;6.20;;;4.67;;
13805;SDS011;6974;53.606;9.872;2023-05-10T05:27:29;6.67;;;5.20;;
13805;SDS011;6974;53.606;9.872;2023-05-10T05:29:57;5.60;;;4.63;;
13805;SDS011;6974;53.606;9.872;2023-05-10T05:32:24;8.47;;;5.50;;
13805;SDS011;6974;53.606;9.872;2023-05-10T05:34:51;6.43;;;4.90;;
13805;SDS011;6974;53.606;9.872;2023-05-10T05:37:18;7.23;;;5.40;;
13805;SDS011;6974;53.606;9.872;2023-05-10T05:39:47;5.30;;;4.80;;
13805;SDS011;6974;53.606;9.872;2023-05-10T05:42:14;7.87;;;5.50;;
13805;SDS011;6974;53.606;9.872;2023-05-10T05:44:42;6.77;;;5.47;;
13805;SDS011;6974;53.606;9.872;2023-05-10T05:47:10;7.33;;;5.20;;
13805;SDS011;6974;53.606;9.872;2023-05-10T05:49:38;6.30;;;5.53;;
13805;SDS011;6974;53.606;9.872;2023-05-10T05:52:04;10.70;;;5.80;;
13805;SDS011;6974;53.606;9.872;2023-05-10T05:54:31;8.43;;;5.20;;
13805;SDS011;6974;53.606;9.872;2023-05-10T05:56:58;5.97;;;5.30;;
13805;SDS011;6974;53.606;9.872;2023-05-10T05:59:26;6.67;;;5.27;;
13805;SDS011;6974;53.606;9.872;2023-05-10T06:01:53;6.03;;;4.93;;
13805;SDS011;6974;53.606;9.872;2023-05-10T06:04:21;8.67;;;5.10;;
13805;SDS011;6974;53.606;9.872;2023-05-10T06:06:48;5.87;;;4.90;;
13805;SDS011;6974;53.606;9.872;2023-05-10T06:09:15;5.57;;;5.07;;
13805;SDS011;6974;53.606;9.872;2023-05-10T06:11:42;7.03;;;5.20;;
13805;SDS011;6974;53.606;9.872;2023-05-10T06:14:08;5.80;;;5.00;;
13805;SDS011;6974;53.606;9.872;2023-05-10T06:16:35;9.40;;;5.40;;
13805;SDS011;6974;53.606;9.872;2023-05-10T06:19:02;5.80;;;4.70;;
13805;SDS011;6974;53.606;9.872;2023-05-10T06:21:31;8.77;;;5.30;;
13805;SDS011;6974;53.606;9.872;2023-05-10T06:23:57;11.03;;;6.00;;
13805;SDS011;6974;53.606;9.872;2023-05-10T06:26:24;8.33;;;6.10;;
13805;SDS011;6974;53.606;9.872;2023-05-10T06:28:51;6.07;;;5.07;;
13805;SDS011;6974;53.606;9.872;2023-05-10T06:31:18;5.67;;;5.10;;
13805;SDS011;6974;53.606;9.872;2023-05-10T06:33:45;7.40;;;5.37;;
13805;SDS011;6974;53.606;9.872;2023-05-10T06:36:12;7.67;;;5.23;;
13805;SDS011;6974;53.606;9.872;2023-05-10T06:38:40;5.90;;;5.10;;
13805;SDS011;6974;53.606;9.872;2023-05-10T06:41:07;7.03;;;5.30;;
13805;SDS011;6974;53.606;9.872;2023-05-10T06:43:34;9.83;;;5.27;;
13805;SDS011;6974;53.606;9.872;2023-05-10T06:46:04;6.20;;;5.60;;
13805;SDS011;6974;53.606;9.872;2023-05-10T06:48:32;5.90;;;5.30;;
13805;SDS011;6974;53.606;9.872;2023-05-10T06:50:59;6.77;;;4.90;;
13805;SDS011;6974;53.606;9.872;2023-05-10T06:53:26;10.50;;;5.70;;
13805;SDS011;6974;53.606;9.872;2023-05-10T06:55:54;9.90;;;6.17;;
13805;SDS011;6974;53.606;9.872;2023-05-10T06:58:21;5.83;;;4.93;;
13805;SDS011;6974;53.606;9.872;2023-05-10T07:00:48;5.03;;;4.53;;
13805;SDS011;6974;53.606;9.872;2023-05-10T07:03:15;5.93;;;5.30;;
13805;SDS011;6974;53.606;9.872;2023-05-10T07:05:45;6.17;;;5.57;;
13805;SDS011;6974;53.606;9.872;2023-05-10T07:08:11;6.60;;;4.70;;
13805;SDS011;6974;53.606;9.872;2023-05-10T07:10:39;7.43;;;4.90;;
13805;SDS011;6974;53.606;9.872;2023-05-10T07:13:07;6.33;;;5.10;;
13805;SDS011;6974;53.606;9.872;2023-05-10T07:15:35;6.23;;;4.80;;
13805;SDS011;6974;53.606;9.872;2023-05-10T07:18:02;7.17;;;5.30;;
13805;SDS011;6974;53.606;9.872;2023-05-10T07:20:30;6.30;;;5.00;;
13805;SDS011;6974;53.606;9.872;2023-05-10T07:22:57;7.10;;;5.17;;
13805;SDS011;6974;53.606;9.872;2023-05-10T07:25:24;5.63;;;5.13;;
13805;SDS011;6974;53.606;9.872;2023-05-10T07:27:51;6.07;;;5.27;;
13805;SDS011;6974;53.606;9.872;2023-05-10T07:30:19;6.23;;;5.47;;
13805;SDS011;6974;53.606;9.872;2023-05-10T07:32:46;5.90;;;4.90;;
13805;SDS011;6974;53.606;9.872;2023-05-10T07:35:13;6.07;;;5.37;;
13805;SDS011;6974;53.606;9.872;2023-05-10T07:37:40;6.47;;;5.13;;
13805;SDS011;6974;53.606;9.872;2023-05-10T07:40:07;6.60;;;4.80;;
13805;SDS011;6974;53.606;9.872;2023-05-10T07:42:35;6.03;;;4.77;;
13805;SDS011;6974;53.606;9.872;2023-05-10T07:45:02;7.60;;;5.37;;
13805;SDS011;6974;53.606;9.872;2023-05-10T07:47:30;5.77;;;5.00;;
13805;SDS011;6974;53.606;9.872;2023-05-10T07:49:57;6.70;;;5.17;;
13805;SDS011;6974;53.606;9.872;2023-05-10T07:52:24;6.33;;;5.00;;
13805;SDS011;6974;53.606;9.872;2023-05-10T07:54:51;5.97;;;5.03;;
13805;SDS011;6974;53.606;9.872;2023-05-10T07:57:18;5.37;;;4.97;;
13805;SDS011;6974;53.606;9.872;2023-05-10T07:59:45;5.60;;;5.10;;
13805;SDS011;6974;53.606;9.872;2023-05-10T08:02:12;5.60;;;5.10;;
13805;SDS011;6974;53.606;9.872;2023-05-10T08:04:40;5.70;;;5.10;;
13805;SDS011;6974;53.606;9.872;2023-05-10T08:07:07;8.00;;;4.93;;
13805;SDS011;6974;53.606;9.872;2023-05-10T08:09:34;9.47;;;5.67;;
13805;SDS011;6974;53.606;9.872;2023-05-10T08:12:01;5.10;;;4.70;;
13805;SDS011;6974;53.606;9.872;2023-05-10T08:14:29;5.10;;;4.60;;
13805;SDS011;6974;53.606;9.872;2023-05-10T08:16:56;6.70;;;4.90;;
13805;SDS011;6974;53.606;9.872;2023-05-10T08:19:22;5.50;;;5.00;;
13805;SDS011;6974;53.606;9.872;2023-05-10T08:21:51;6.70;;;4.97;;
13805;SDS011;6974;53.606;9.872;2023-05-10T08:24:18;6.03;;;5.00;;
13805;SDS011;6974;53.606;9.872;2023-05-10T08:26:45;6.37;;;4.60;;
13805;SDS011;6974;53.606;9.872;2023-05-10T08:29:12;5.83;;;5.23;;
13805;SDS011;6974;53.606;9.872;2023-05-10T08:31:39;6.27;;;5.17;;
13805;SDS011;6974;53.606;9.872;2023-05-10T08:34:06;6.07;;;5.47;;
13805;SDS011;6974;53.606;9.872;2023-05-10T08:36:35;6.70;;;5.20;;
13805;SDS011;6974;53.606;9.872;2023-05-10T08:39:04;7.80;;;5.53;;
13805;SDS011;6974;53.606;9.872;2023-05-10T08:41:31;6.93;;;5.23;;
13805;SDS011;6974;53.606;9.872;2023-05-10T08:44:02;6.37;;;5.30;;
13805;SDS011;6974;53.606;9.872;2023-05-10T08:46:34;7.00;;;5.40;;
13805;SDS011;6974;53.606;9.872;2023-05-10T08:49:05;7.23;;;5.10;;
13805;SDS011;6974;53.606;9.872;2023-05-10T08:51:35;5.80;;;5.30;;
13805;SDS011;6974;53.606;9.872;2023-05-10T08:54:05;7.03;;;5.57;;
13805;SDS011;6974;53.606;9.872;2023-05-10T08:56:33;6.03;;;5.43;;
13805;SDS011;6974;53.606;9.872;2023-05-10T08:58:59;6.63;;;5.60;;
13805;SDS011;6974;53.606;9.872;2023-05-10T09:01:26;5.10;;;4.70;;
13805;SDS011;6974;53.606;9.872;2023-05-10T09:03:54;6.43;;;5.63;;
13805;SDS011;6974;53.606;9.872;2023-05-10T09:06:21;5.60;;;5.10;;
13805;SDS011;6974;53.606;9.872;2023-05-10T09:08:48;5.57;;;5.07;;
13805;SDS011;6974;53.606;9.872;2023-05-10T09:11:17;6.10;;;5.50;;
13805;SDS011;6974;53.606;9.872;2023-05-10T09:13:44;5.63;;;5.13;;
13805;SDS011;6974;53.606;9.872;2023-05-10T09:16:11;5.73;;;5.23;;
13805;SDS011;6974;53.606;9.872;2023-05-10T09:18:38;6.73;;;5.63;;
13805;SDS011;6974;53.606;9.872;2023-05-10T09:21:05;5.70;;;5.20;;
13805;SDS011;6974;53.606;9.872;2023-05-10T09:23:32;5.80;;;5.30;;
13805;SDS011;6974;53.606;9.872;2023-05-10T09:26:02;5.67;;;5.13;;
13805;SDS011;6974;53.606;9.872;2023-05-10T09:28:32;9.83;;;6.17;;
13805;SDS011;6974;53.606;9.872;2023-05-10T09:30:59;6.67;;;5.83;;
13805;SDS011;6974;53.606;9.872;2023-05-10T09:33:26;6.30;;;5.70;;
13805;SDS011;6974;53.606;9.872;2023-05-10T09:35:53;6.13;;;5.43;;
13805;SDS011;6974;53.606;9.872;2023-05-10T09:38:20;9.10;;;6.70;;
13805;SDS011;6974;53.606;9.872;2023-05-10T09:40:50;6.93;;;6.07;;
13805;SDS011;6974;53.606;9.872;2023-05-10T09:43:20;8.53;;;6.00;;
13805;SDS011;6974;53.606;9.872;2023-05-10T09:45:49;7.70;;;6.07;;
13805;SDS011;6974;53.606;9.872;2023-05-10T09:48:15;10.13;;;6.30;;
13805;SDS011;6974;53.606;9.872;2023-05-10T09:50:42;6.70;;;6.10;;
13805;SDS011;6974;53.606;9.872;2023-05-10T09:53:09;7.13;;;6.43;;
13805;SDS011;6974;53.606;9.872;2023-05-10T09:55:41;7.23;;;6.50;;
13805;SDS011;6974;53.606;9.872;2023-05-10T09:58:09;7.00;;;6.30;;
13805;SDS011;6974;53.606;9.872;2023-05-10T10:00:38;7.33;;;6.63;;
13805;SDS011;6974;53.606;9.872;2023-05-10T10:03:11;7.83;;;7.07;;
13805;SDS011;6974;53.606;9.872;2023-05-10T10:05:39;8.07;;;7.03;;
13805;SDS011;6974;53.606;9.872;2023-05-10T10:08:07;9.63;;;7.60;;
13805;SDS011;6974;53.606;9.872;2023-05-10T10:10:34;7.80;;;6.97;;
13805;SDS011;6974;53.606;9.872;2023-05-10T10:13:01;8.13;;;7.33;;
13805;SDS011;6974;53.606;9.872;2023-05-10T10:15:29;9.23;;;8.00;;
13805;SDS011;6974;53.606;9.872;2023-05-10T10:17:58;8.83;;;7.60;;
13805;SDS011;6974;53.606;9.872;2023-05-10T10:20:27;10.80;;;7.53;;
13805;SDS011;6974;53.606;9.872;2023-05-10T10:22:54;8.73;;;7.67;;
13805;SDS011;6974;53.606;9.872;2023-05-10T10:25:21;8.23;;;7.43;;
13805;SDS011;6974;53.606;9.872;2023-05-10T10:27:49;10.17;;;7.87;;
13805;SDS011;6974;53.606;9.872;2023-05-10T10:30:29;9.00;;;8.10;;
13805;SDS011;6974;53.606;9.872;2023-05-10T10:33:29;11.00;;;8.63;;
13805;SDS011;6974;53.606;9.872;2023-05-10T10:36:07;9.20;;;8.07;;
13805;SDS011;6974;53.606;9.872;2023-05-10T10:38:38;9.70;;;8.80;;
13805;SDS011;6974;53.606;9.872;2023-05-10T10:41:27;9.17;;;8.27;;
13805;SDS011;6974;53.606;9.872;2023-05-10T10:46:58;12.40;;;8.70;;
13805;SDS011;6974;53.606;9.872;2023-05-10T10:49:31;9.90;;;8.83;;
13805;SDS011;6974;53.606;9.872;2023-05-10T10:54:53;11.30;;;9.73;;
13805;SDS011;6974;53.606;9.872;2023-05-10T10:57:24;10.90;;;9.90;;
13805;SDS011;6974;53.606;9.872;2023-05-10T10:59:54;11.97;;;9.37;;
13805;SDS011;6974;53.606;9.872;2023-05-10T11:02:49;9.87;;;8.97;;
13805;SDS011;6974;53.606;9.872;2023-05-10T11:08:11;10.30;;;9.37;;
13805;SDS011;6974;53.606;9.872;2023-05-10T11:10:40;9.93;;;8.93;;
13805;SDS011;6974;53.606;9.872;2023-05-10T11:13:16;9.43;;;8.63;;
13805;SDS011;6974;53.606;9.872;2023-05-10T11:15:53;10.10;;;9.10;;
13805;SDS011;6974;53.606;9.872;2023-05-10T11:18:23;10.03;;;9.03;;
13805;SDS011;6974;53.606;9.872;2023-05-10T11:20:51;10.30;;;9.30;;
13805;SDS011;6974;53.606;9.872;2023-05-10T11:23:20;11.20;;;9.27;;
13805;SDS011;6974;53.606;9.872;2023-05-10T11:25:48;10.57;;;9.57;;
13805;SDS011;6974;53.606;9.872;2023-05-10T11:28:17;10.50;;;9.50;;
13805;SDS011;6974;53.606;9.872;2023-05-10T11:30:45;9.93;;;8.93;;
13805;SDS011;6974;53.606;9.872;2023-05-10T11:33:15;10.83;;;9.93;;
13805;SDS011;6974;53.606;9.872;2023-05-10T11:35:44;10.67;;;9.50;;
13805;SDS011;6974;53.606;9.872;2023-05-10T11:38:12;9.90;;;8.70;;
13805;SDS011;6974;53.606;9.872;2023-05-10T11:40:42;10.07;;;9.10;;
13805;SDS011;6974;53.606;9.872;2023-05-10T11:43:10;11.83;;;8.90;;
13805;SDS011;6974;53.606;9.872;2023-05-10T11:45:37;9.67;;;8.77;;
13805;SDS011;6974;53.606;9.872;2023-05-10T11:48:06;11.00;;;8.10;;
13805;SDS011;6974;53.606;9.872;2023-05-10T11:50:34;9.67;;;8.33;;
13805;SDS011;6974;53.606;9.872;2023-05-10T11:53:03;8.63;;;7.53;;
13805;SDS011;6974;53.606;9.872;2023-05-10T11:55:32;9.20;;;7.47;;
13805;SDS011;6974;53.606;9.872;2023-05-10T11:58:02;8.10;;;7.30;;
13805;SDS011;6974;53.606;9.872;2023-05-10T12:00:30;8.03;;;7.17;;
13805;SDS011;6974;53.606;9.872;2023-05-10T12:03:00;8.83;;;7.93;;
13805;SDS011;6974;53.606;9.872;2023-05-10T12:05:28;9.30;;;8.40;;
13805;SDS011;6974;53.606;9.872;2023-05-10T12:08:11;9.07;;;8.17;;
13805;SDS011;6974;53.606;9.872;2023-05-10T12:10:42;9.47;;;8.67;;
13805;SDS011;6974;53.606;9.872;2023-05-10T12:13:13;9.63;;;8.73;;
13805;SDS011;6974;53.606;9.872;2023-05-10T12:15:41;10.13;;;9.23;;
13805;SDS011;6974;53.606;9.872;2023-05-10T12:18:09;9.13;;;8.30;;
13805;SDS011;6974;53.606;9.872;2023-05-10T12:20:36;9.17;;;8.37;;
13805;SDS011;6974;53.606;9.872;2023-05-10T12:23:09;10.00;;;9.10;;
13805;SDS011;6974;53.606;9.872;2023-05-10T12:25:37;10.17;;;8.73;;
13805;SDS011;6974;53.606;9.872;2023-05-10T12:28:06;9.97;;;7.83;;
13805;SDS011;6974;53.606;9.872;2023-05-10T12:30:37;9.13;;;8.40;;
13805;SDS011;6974;53.606;9.872;2023-05-10T12:33:07;8.27;;;7.50;;
13805;SDS011;6974;53.606;9.872;2023-05-10T12:35:43;8.83;;;8.03;;
13805;SDS011;6974;53.606;9.872;2023-05-10T12:38:28;8.20;;;7.50;;
13805;SDS011;6974;53.606;9.872;2023-05-10T12:40:59;7.33;;;6.50;;
13805;SDS011;6974;53.606;9.872;2023-05-10T12:43:27;6.37;;;5.80;;
13805;SDS011;6974;53.606;9.872;2023-05-10T12:45:56;6.73;;;6.20;;
13805;SDS011;6974;53.606;9.872;2023-05-10T12:48:26;8.80;;;7.90;;
13805;SDS011;6974;53.606;9.872;2023-05-10T12:50:56;10.30;;;9.40;;
13805;SDS011;6974;53.606;9.872;2023-05-10T12:53:23;11.03;;;9.93;;
13805;SDS011;6974;53.606;9.872;2023-05-10T12:55:50;10.70;;;9.70;;
13805;SDS011;6974;53.606;9.872;2023-05-10T12:58:17;9.47;;;8.67;;
13805;SDS011;6974;53.606;9.872;2023-05-10T13:00:44;9.77;;;8.67;;
13805;SDS011;6974;53.606;9.872;2023-05-10T13:03:13;8.27;;;7.47;;
13805;SDS011;6974;53.606;9.872;2023-05-10T13:05:41;8.53;;;7.73;;
13805;SDS011;6974;53.606;9.872;2023-05-10T13:08:08;8.23;;;7.53;;
13805;SDS011;6974;53.606;9.872;2023-05-10T13:10:35;8.67;;;7.90;;
13805;SDS011;6974;53.606;9.872;2023-05-10T13:13:03;9.50;;;8.60;;
13805;SDS011;6974;53.606;9.872;2023-05-10T13:15:30;9.90;;;9.00;;
13805;SDS011;6974;53.606;9.872;2023-05-10T13:17:57;9.43;;;8.63;;
13805;SDS011;6974;53.606;9.872;2023-05-10T13:20:26;9.33;;;8.43;;
13805;SDS011;6974;53.606;9.872;2023-05-10T13:22:54;10.20;;;9.20;;
13805;SDS011;6974;53.606;9.872;2023-05-10T13:25:21;10.53;;;9.63;;
13805;SDS011;6974;53.606;9.872;2023-05-10T13:27:49;10.07;;;9.23;;
13805;SDS011;6974;53.606;9.872;2023-05-10T13:30:16;10.00;;;9.07;;
13805;SDS011;6974;53.606;9.872;2023-05-10T13:32:45;10.27;;;9.37;;
13805;SDS011;6974;53.606;9.872;2023-05-10T13:35:12;9.17;;;8.37;;
13805;SDS011;6974;53.606;9.872;2023-05-10T13:37:41;8.73;;;7.93;;
13805;SDS011;6974;53.606;9.872;2023-05-10T13:40:08;9.50;;;8.53;;
13805;SDS011;6974;53.606;9.872;2023-05-10T13:42:36;8.60;;;7.90;;
13805;SDS011;6974;53.606;9.872;2023-05-10T13:45:05;9.37;;;8.57;;
13805;SDS011;6974;53.606;9.872;2023-05-10T13:47:33;8.50;;;7.70;;
13805;SDS011;6974;53.606;9.872;2023-05-10T13:50:00;11.67;;;9.00;;
13805;SDS011;6974;53.606;9.872;2023-05-10T13:52:29;9.73;;;8.83;;
13805;SDS011;6974;53.606;9.872;2023-05-10T13:54:58;10.70;;;9.50;;
13805;SDS011;6974;53.606;9.872;2023-05-10T13:57:26;9.33;;;8.53;;
13805;SDS011;6974;53.606;9.872;2023-05-10T13:59:53;8.80;;;7.90;;
13805;SDS011;6974;53.606;9.872;2023-05-10T14:02:22;10.17;;;9.27;;
13805;SDS011;6974;53.606;9.872;2023-05-10T14:04:49;10.63;;;9.73;;
13805;SDS011;6974;53.606;9.872;2023-05-10T14:07:19;10.33;;;9.40;;
13805;SDS011;6974;53.606;9.872;2023-05-10T14:09:47;9.53;;;8.70;;
13805;SDS011;6974;53.606;9.872;2023-05-10T14:12:18;8.70;;;8.00;;
13805;SDS011;6974;53.606;9.872;2023-05-10T14:14:45;9.37;;;8.57;;
13805;SDS011;6974;53.606;9.872;2023-05-10T14:17:13;9.60;;;8.80;;
13805;SDS011;6974;53.606;9.872;2023-05-10T14:19:40;10.03;;;9.03;;
13805;SDS011;6974;53.606;9.872;2023-05-10T14:22:07;10.20;;;9.27;;
13805;SDS011;6974;53.606;9.872;2023-05-10T14:24:34;11.00;;;9.30;;
13805;SDS011;6974;53.606;9.872;2023-05-10T14:27:02;10.97;;;9.90;;
13805;SDS011;6974;53.606;9.872;2023-05-10T14:29:30;9.70;;;8.80;;
13805;SDS011;6974;53.606;9.872;2023-05-10T14:32:03;9.10;;;8.20;;
13805;SDS011;6974;53.606;9.872;2023-05-10T14:34:31;8.57;;;7.87;;
13805;SDS011;6974;53.606;9.872;2023-05-10T14:36:59;9.57;;;8.60;;
13805;SDS011;6974;53.606;9.872;2023-05-10T14:39:28;9.53;;;8.63;;
13805;SDS011;6974;53.606;9.872;2023-05-10T14:41:56;9.67;;;8.87;;
13805;SDS011;6974;53.606;9.872;2023-05-10T14:44:23;10.27;;;9.27;;
13805;SDS011;6974;53.606;9.872;2023-05-10T14:46:54;9.57;;;8.70;;
13805;SDS011;6974;53.606;9.872;2023-05-10T14:49:21;9.40;;;8.60;;
13805;SDS011;6974;53.606;9.872;2023-05-10T14:51:50;9.07;;;8.37;;
13805;SDS011;6974;53.606;9.872;2023-05-10T14:54:17;8.60;;;7.77;;
13805;SDS011;6974;53.606;9.872;2023-05-10T14:56:48;8.70;;;7.90;;
13805;SDS011;6974;53.606;9.872;2023-05-10T14:59:15;8.47;;;7.23;;
13805;SDS011;6974;53.606;9.872;2023-05-10T15:01:44;8.73;;;8.03;;
13805;SDS011;6974;53.606;9.872;2023-05-10T15:04:13;8.57;;;7.50;;
13805;SDS011;6974;53.606;9.872;2023-05-10T15:06:41;9.10;;;8.13;;
13805;SDS011;6974;53.606;9.872;2023-05-10T15:09:09;8.50;;;7.70;;
13805;SDS011;6974;53.606;9.872;2023-05-10T15:11:36;8.07;;;7.40;;
13805;SDS011;6974;53.606;9.872;2023-05-10T15:14:03;11.67;;;10.47;;
13805;SDS011;6974;53.606;9.872;2023-05-10T15:16:31;10.23;;;8.57;;
13805;SDS011;6974;53.606;9.872;2023-05-10T15:18:58;10.60;;;8.37;;
13805;SDS011;6974;53.606;9.872;2023-05-10T15:21:29;9.30;;;8.40;;
13805;SDS011;6974;53.606;9.872;2023-05-10T15:24:00;9.23;;;8.33;;